Time;durP1;ratioP1;P1;durP2;ratioP2;P2;SDS_P1;SDS_P2;PMS_P1;PMS_P2;Temp;Humidity;BMP_temperature;BMP_pressure;BME280_temperature;BME280_humidity;BME280_pressure;Samples;Min_cycle;Max_cycle;Signal;HPM_P1;HPM_P2
2021/08/10 00:00:41;;;;;;;29.03;26.83;;;;;;;16.57;100.00;99409.66;2096472;28;20973;-75
2021/08/10 00:01:43;;;;;;;29.83;27.33;;;;;;;16.63;100.00;99413.75;2096119;28;20826;-74
2021/08/10 00:02:43;;;;;;;29.27;26.57;;;;;;;16.65;100.00;99417.69;2096862;28;20221;-75
2021/08/10 00:03:45;;;;;;;29.07;26.47;;;;;;;16.71;100.00;99412.16;2096993;28;20456;-74
2021/08/10 00:04:45;;;;;;;27.90;25.37;;;;;;;16.73;100.00;99412.59;2096967;28;20241;-75
2021/08/10 00:05:48;;;;;;;27.17;24.87;;;;;;;16.73;100.00;99418.00;2096033;28;20449;-74
2021/08/10 00:06:49;;;;;;;27.63;25.37;;;;;;;16.75;100.00;99418.44;2096172;28;20249;-75
2021/08/10 00:07:51;;;;;;;28.67;26.27;;;;;;;16.76;100.00;99414.63;2096926;28;20441;-75
2021/08/10 00:08:51;;;;;;;29.47;26.57;;;;;;;16.77;100.00;99414.34;2095738;28;20230;-73
2021/08/10 00:09:53;;;;;;;27.60;25.07;;;;;;;16.79;100.00;99409.41;2096161;28;20452;-74
2021/08/10 00:10:55;;;;;;;26.63;24.27;;;;;;;16.79;100.00;99398.63;2096741;28;20245;-74
2021/08/10 00:11:57;;;;;;;25.90;23.70;;;;;;;16.80;100.00;99402.09;2096836;28;20449;-75
2021/08/10 00:12:58;;;;;;;26.70;24.50;;;;;;;16.77;100.00;99400.84;2096819;28;20460;-74
2021/08/10 00:13:59;;;;;;;27.80;25.57;;;;;;;16.77;100.00;99402.78;2096114;28;20448;-74
2021/08/10 00:15:00;;;;;;;25.57;23.33;;;;;;;16.77;100.00;99400.84;2096034;28;20226;-75
2021/08/10 00:16:02;;;;;;;27.33;24.80;;;;;;;16.78;100.00;99404.34;2096908;28;20456;-74
2021/08/10 00:17:03;;;;;;;28.93;26.37;;;;;;;16.78;100.00;99402.44;2096413;28;20222;-75
2021/08/10 00:18:05;;;;;;;27.23;24.83;;;;;;;16.77;100.00;99410.84;2096064;28;20456;-75
2021/08/10 00:19:05;;;;;;;26.40;24.50;;;;;;;16.77;100.00;99408.94;2096847;28;20483;-75
2021/08/10 00:20:08;;;;;;;28.17;25.50;;;;;;;16.76;100.00;99407.34;2096775;28;20952;-75
2021/08/10 00:21:09;;;;;;;27.60;25.20;;;;;;;16.74;100.00;99403.41;2096513;28;20592;-74
2021/08/10 00:22:10;;;;;;;27.90;25.60;;;;;;;16.71;100.00;99404.06;2096895;28;20479;-74
2021/08/10 00:23:11;;;;;;;28.13;25.57;;;;;;;16.68;100.00;99400.09;2096919;28;20309;-75
2021/08/10 00:24:13;;;;;;;27.67;25.37;;;;;;;16.66;100.00;99395.03;2096987;28;20445;-74
2021/08/10 00:25:13;;;;;;;27.33;24.90;;;;;;;16.63;100.00;99393.00;2096004;28;20248;-75
2021/08/10 00:26:16;;;;;;;27.37;24.77;;;;;;;16.59;100.00;99389.38;2096281;28;20461;-75
2021/08/10 00:27:17;;;;;;;28.50;25.50;;;;;;;16.58;100.00;99387.00;2096200;28;20222;-75
2021/08/10 00:28:18;;;;;;;30.57;27.87;;;;;;;16.55;100.00;99383.06;2096850;28;20452;-75
2021/08/10 00:29:19;;;;;;;28.17;25.73;;;;;;;16.52;100.00;99372.16;2095989;28;20218;-74
2021/08/10 00:30:21;;;;;;;28.27;25.77;;;;;;;16.48;100.00;99363.16;2096221;28;20449;-75
2021/08/10 00:31:22;;;;;;;28.57;26.10;;;;;;;16.45;100.00;99361.91;2095447;28;20222;-74
2021/08/10 00:32:23;;;;;;;28.63;25.83;;;;;;;16.43;100.00;99349.88;2096274;28;20452;-74
2021/08/10 00:33:24;;;;;;;28.23;25.50;;;;;;;16.39;100.00;99358.59;2095922;28;20242;-74
2021/08/10 00:34:26;;;;;;;28.40;26.10;;;;;;;16.38;100.00;99362.41;2096222;28;20444;-74
2021/08/10 00:35:27;;;;;;;27.13;24.73;;;;;;;16.35;100.00;99352.31;2096178;28;20230;-74
2021/08/10 00:36:28;;;;;;;26.57;24.23;;;;;;;16.34;100.00;99358.81;2087699;28;20479;-74
2021/08/10 00:37:29;;;;;;;27.87;25.27;;;;;;;16.30;100.00;99355.19;2080733;28;20230;-75
2021/08/10 00:38:31;;;;;;;27.40;25.30;;;;;;;16.27;100.00;99355.06;2095096;28;20464;-75
2021/08/10 00:39:33;;;;;;;27.00;24.37;;;;;;;16.26;100.00;99348.88;2096255;28;20279;-75
2021/08/10 00:40:36;;;;;;;26.77;24.37;;;;;;;16.25;100.00;99346.53;2089561;28;20449;-75
2021/08/10 00:41:39;;;;;;;28.67;25.77;;;;;;;16.23;100.00;99354.09;2089125;28;20449;-74
2021/08/10 00:42:42;;;;;;;29.03;26.63;;;;;;;16.19;100.00;99359.38;2089557;28;20449;-74
2021/08/10 00:43:47;;;;;;;28.20;25.70;;;;;;;16.18;100.00;99357.78;2096404;28;20468;-75
2021/08/10 00:44:54;;;;;;;28.07;25.87;;;;;;;16.15;100.00;99371.09;2089208;28;20477;-74
2021/08/10 00:45:56;;;;;;;28.87;26.63;;;;;;;16.13;100.00;99371.44;2089497;28;20463;-74
2021/08/10 00:46:58;;;;;;;28.73;26.53;;;;;;;16.13;100.00;99373.34;2089333;28;20222;-74
2021/08/10 00:47:59;;;;;;;28.50;26.03;;;;;;;16.11;100.00;99377.16;2082348;28;20937;-75
2021/08/10 00:49:04;;;;;;;28.53;25.63;;;;;;;16.12;100.00;99375.25;2096984;28;20452;-75
2021/08/10 00:50:09;;;;;;;27.83;25.57;;;;;;;16.14;100.00;99377.59;2089436;28;20534;-74
2021/08/10 00:51:15;;;;;;;28.53;25.90;;;;;;;16.14;100.00;99377.59;2087275;28;20501;-75
2021/08/10 00:52:21;;;;;;;28.67;26.17;;;;;;;16.14;100.00;99370.31;2095357;28;20444;-75
2021/08/10 00:53:23;;;;;;;27.30;24.97;;;;;;;16.18;100.00;99373.94;2089393;28;20464;-75
2021/08/10 00:54:25;;;;;;;28.13;25.63;;;;;;;16.17;100.00;99371.59;2088928;28;20249;-74
2021/08/10 00:55:25;;;;;;;30.77;27.67;;;;;;;16.14;100.00;99361.44;2082424;28;20461;-74
2021/08/10 00:56:29;;;;;;;29.63;27.27;;;;;;;16.15;100.00;99371.09;2096337;28;20936;-75
2021/08/10 00:57:31;;;;;;;29.60;26.90;;;;;;;16.15;100.00;99368.41;2097366;28;20449;-76
2021/08/10 00:58:33;;;;;;;28.10;25.73;;;;;;;16.13;100.00;99368.75;2089400;28;20456;-75
2021/08/10 00:59:35;;;;;;;28.97;26.03;;;;;;;16.12;100.00;99375.25;2097415;28;20448;-75
2021/08/10 01:00:35;;;;;;;29.70;27.00;;;;;;;16.10;100.00;99372.09;2089193;28;20452;-75
2021/08/10 01:01:38;;;;;;;28.97;26.20;;;;;;;16.10;100.00;99380.16;2080605;28;20472;-74
2021/08/10 01:02:39;;;;;;;31.27;28.93;;;;;;;16.11;100.00;99376.34;2095512;28;20808;-75
2021/08/10 01:03:42;;;;;;;30.53;28.00;;;;;;;16.11;100.00;99368.28;2089440;28;20495;-75
2021/08/10 01:04:43;;;;;;;29.60;26.87;;;;;;;16.12;100.00;99380.63;2097529;28;20544;-76
2021/08/10 01:05:48;;;;;;;29.13;26.43;;;;;;;16.10;100.00;99377.47;2097321;28;20463;-75
2021/08/10 01:07:01;;;;;;;27.27;24.57;;;;;;;16.11;100.00;99379.03;2097385;28;20537;-75
2021/08/10 01:08:06;;;;;;;28.00;25.47;;;;;;;16.19;100.00;99380.91;2097084;28;20501;-75
2021/08/10 01:09:10;;;;;;;27.40;25.20;;;;;;;16.22;100.00;99385.63;2089390;28;20457;-74
2021/08/10 01:10:17;;;;;;;26.73;24.63;;;;;;;16.20;100.00;99385.19;2097404;28;20491;-74
2021/08/10 01:11:24;;;;;;;26.97;24.50;;;;;;;16.21;100.00;99389.44;2097372;28;20448;-75
2021/08/10 01:12:28;;;;;;;27.10;24.77;;;;;;;16.21;100.00;99381.38;2089498;28;20457;-74
2021/08/10 01:13:37;;;;;;;26.60;24.33;;;;;;;16.20;100.00;99379.00;2089590;28;20445;-74
2021/08/10 01:14:42;;;;;;;28.07;25.63;;;;;;;16.18;100.00;99375.84;2083458;28;20477;-75
2021/08/10 01:15:47;;;;;;;27.43;24.93;;;;;;;16.20;100.00;99374.41;2097340;28;20506;-75
2021/08/10 01:16:51;;;;;;;26.90;24.53;;;;;;;16.18;100.00;99376.63;2098210;28;20459;-75
2021/08/10 01:17:57;;;;;;;26.17;24.07;;;;;;;16.17;100.00;99375.06;2096896;28;20519;-74
2021/08/10 01:19:04;;;;;;;26.23;24.00;;;;;;;16.17;100.00;99376.97;2089789;28;20540;-74
2021/08/10 01:20:36;;;;;;;27.03;24.53;;;;;;;16.17;100.00;99374.28;2089657;28;20456;-75
2021/08/10 01:21:39;;;;;;;29.93;25.83;;;;;;;16.14;100.00;99377.59;2096350;28;20449;-73
2021/08/10 01:22:42;;;;;;;27.27;25.20;;;;;;;16.13;100.00;99382.19;2089385;28;21042;-74
2021/08/10 01:23:45;;;;;;;28.93;26.37;;;;;;;16.10;100.00;99383.63;2082044;28;20453;-75
2021/08/10 01:24:49;;;;;;;27.67;24.70;;;;;;;16.07;100.00;99389.69;2088484;28;20838;-75
2021/08/10 01:25:58;;;;;;;26.53;24.43;;;;;;;16.05;100.00;99385.72;2088873;28;20468;-75
2021/08/10 01:27:29;;;;;;;25.87;23.50;;;;;;;16.02;100.00;99381.00;2090464;28;20806;-75
2021/08/10 01:28:41;;;;;;;25.67;23.50;;;;;;;16.00;100.00;99378.63;2088434;28;20448;-75
2021/08/10 01:29:50;;;;;;;26.23;23.87;;;;;;;16.00;100.00;99375.94;2089387;28;20449;-75
2021/08/10 01:31:03;;;;;;;26.17;23.53;;;;;;;15.99;100.00;99376.28;2089733;28;20465;-74
2021/08/10 01:32:06;;;;;;;25.40;23.07;;;;;;;15.98;100.00;99378.16;2090314;28;21057;-75
2021/08/10 01:33:08;;;;;;;24.50;22.57;;;;;;;16.00;100.00;99381.31;2086971;28;20454;-74
2021/08/10 01:34:16;;;;;;;25.47;22.97;;;;;;;16.00;100.00;99383.22;2088977;28;20495;-74
2021/08/10 01:35:19;;;;;;;24.57;22.27;;;;;;;15.99;100.00;99376.28;2097102;28;20503;-75
2021/08/10 01:36:22;;;;;;;26.53;23.87;;;;;;;15.98;100.00;99380.03;2089130;28;20453;-75
2021/08/10 01:37:27;;;;;;;25.70;23.63;;;;;;;15.98;100.00;99385.44;2088786;28;20480;-74
2021/08/10 01:38:31;;;;;;;26.77;24.20;;;;;;;15.95;100.00;99376.09;2096999;28;20463;-75
2021/08/10 01:39:37;;;;;;;25.80;23.43;;;;;;;15.97;100.00;99378.47;2097086;28;20479;-75
2021/08/10 01:40:38;;;;;;;25.80;23.47;;;;;;;15.95;100.00;99378.81;2082842;28;20837;-75
2021/08/10 01:41:41;;;;;;;26.77;24.43;;;;;;;15.95;100.00;99376.09;2097016;28;20445;-75
2021/08/10 01:42:43;;;;;;;27.03;24.83;;;;;;;15.96;100.00;99376.91;2082199;28;20738;-75
2021/08/10 01:43:47;;;;;;;27.77;25.00;;;;;;;15.95;100.00;99383.38;2096247;28;20452;-75
2021/08/10 01:44:52;;;;;;;26.27;24.07;;;;;;;15.98;100.00;99380.03;2097034;28;20518;-75
2021/08/10 01:45:53;;;;;;;25.47;23.43;;;;;;;15.95;100.00;99388.78;2082390;28;20485;-75
2021/08/10 01:46:55;;;;;;;25.23;23.00;;;;;;;15.94;100.00;99385.28;2080578;28;20940;-74
2021/08/10 01:47:58;;;;;;;26.43;24.17;;;;;;;15.92;100.00;99386.75;2082985;28;20458;-75
2021/08/10 01:49:01;;;;;;;27.67;25.37;;;;;;;15.94;100.00;99389.88;2096200;28;20486;-75
2021/08/10 01:50:03;;;;;;;27.53;24.57;;;;;;;15.94;100.00;99389.88;2088869;28;20487;-75
2021/08/10 01:51:06;;;;;;;27.00;24.83;;;;;;;15.98;100.00;99393.50;2096595;28;20457;-75
2021/08/10 01:52:12;;;;;;;26.60;24.03;;;;;;;15.99;100.00;99387.81;2088421;28;21015;-75
2021/08/10 01:53:13;;;;;;;27.53;25.20;;;;;;;16.02;100.00;99386.38;2089461;28;20442;-75
2021/08/10 01:54:15;;;;;;;27.83;25.57;;;;;;;16.04;100.00;99387.63;2097142;28;20539;-75
2021/08/10 01:55:18;;;;;;;26.90;24.67;;;;;;;16.04;100.00;99382.25;2096960;28;20456;-75
2021/08/10 01:56:20;;;;;;;27.37;25.17;;;;;;;16.02;100.00;99381.78;2089112;28;20454;-75
2021/08/10 01:57:23;;;;;;;28.00;25.77;;;;;;;16.04;100.00;99384.13;2082333;28;20972;-75
2021/08/10 01:58:25;;;;;;;29.20;26.67;;;;;;;16.03;100.00;99388.75;2082198;28;20458;-75
2021/08/10 01:59:29;;;;;;;27.40;25.00;;;;;;;16.03;100.00;99387.94;2095639;28;20444;-75
2021/08/10 02:00:32;;;;;;;27.70;24.97;;;;;;;16.07;100.00;99388.88;2081321;28;20554;-74
2021/08/10 02:01:35;;;;;;;27.70;25.20;;;;;;;16.08;100.00;99388.56;2088745;28;20461;-75
2021/08/10 02:02:37;;;;;;;26.53;24.20;;;;;;;16.08;100.00;99385.88;2080697;28;20993;-75
2021/08/10 02:03:50;;;;;;;27.73;25.00;;;;;;;16.11;100.00;99389.81;2089671;28;21021;-75
2021/08/10 02:04:51;;;;;;;27.97;25.17;;;;;;;16.10;100.00;99382.84;2088855;28;21006;-75
2021/08/10 02:05:54;;;;;;;27.70;24.97;;;;;;;16.12;100.00;99386.00;2096588;28;20474;-73
2021/08/10 02:07:03;;;;;;;28.80;25.93;;;;;;;16.11;100.00;99374.44;2096914;28;20476;-75
2021/08/10 02:08:06;;;;;;;27.43;24.77;;;;;;;16.13;100.00;99382.19;2088935;28;20457;-75
2021/08/10 02:09:11;;;;;;;27.60;25.10;;;;;;;16.10;100.00;99382.84;2088415;28;20830;-74
2021/08/10 02:10:12;;;;;;;27.87;25.10;;;;;;;16.08;100.00;99385.88;2088891;28;20481;-74
2021/08/10 02:11:15;;;;;;;27.33;25.03;;;;;;;16.09;100.00;99382.06;2088646;28;20445;-75
2021/08/10 02:12:17;;;;;;;25.67;23.03;;;;;;;16.08;100.00;99379.72;2096737;28;20448;-75
2021/08/10 02:13:19;;;;;;;25.90;23.70;;;;;;;16.08;100.00;99385.09;2096481;28;20471;-75
2021/08/10 02:14:25;;;;;;;27.20;24.60;;;;;;;16.07;100.00;99375.41;2088156;28;21101;-74
2021/08/10 02:15:30;;;;;;;26.93;23.90;;;;;;;16.07;100.00;99378.91;2089378;28;20951;-75
2021/08/10 02:16:37;;;;;;;27.47;25.17;;;;;;;16.06;100.00;99374.63;2089261;28;20457;-75
2021/08/10 02:17:40;;;;;;;25.57;23.37;;;;;;;16.06;100.00;99377.31;2082004;28;20455;-74
2021/08/10 02:18:52;;;;;;;28.40;25.43;;;;;;;16.04;100.00;99376.84;2096666;28;21009;-75
2021/08/10 02:19:59;;;;;;;27.10;24.70;;;;;;;16.04;100.00;99378.75;2089240;28;20449;-75
2021/08/10 02:21:03;;;;;;;27.27;24.77;;;;;;;16.02;100.00;99376.41;2081124;28;20442;-75
2021/08/10 02:22:07;;;;;;;27.40;25.00;;;;;;;16.01;100.00;99374.81;2088459;28;20445;-75
2021/08/10 02:23:12;;;;;;;27.37;24.53;;;;;;;16.01;100.00;99369.44;2089077;28;20450;-75
2021/08/10 02:24:20;;;;;;;26.20;23.93;;;;;;;16.04;100.00;99378.75;2081436;28;20446;-74
2021/08/10 02:25:22;;;;;;;28.27;25.87;;;;;;;16.03;100.00;99371.81;2089314;28;20468;-75
2021/08/10 02:26:35;;;;;;;26.67;24.27;;;;;;;15.99;100.00;99371.66;2088602;28;20475;-75
2021/08/10 02:27:38;;;;;;;26.90;24.53;;;;;;;16.00;100.00;99377.84;2088911;28;20464;-75
2021/08/10 02:28:41;;;;;;;25.33;23.33;;;;;;;15.97;100.00;99375.78;2088569;28;20457;-74
2021/08/10 02:29:45;;;;;;;26.47;24.30;;;;;;;15.97;100.00;99373.09;2081623;28;20904;-75
2021/08/10 02:30:53;;;;;;;25.40;23.30;;;;;;;15.94;100.00;99368.38;2080928;28;20454;-75
2021/08/10 02:31:58;;;;;;;26.30;23.87;;;;;;;15.95;100.00;99372.63;2080787;28;20438;-75
2021/08/10 02:33:05;;;;;;;27.37;24.90;;;;;;;15.93;100.00;99372.97;2080564;28;20453;-75
2021/08/10 02:34:10;;;;;;;27.53;24.63;;;;;;;15.93;100.00;99378.34;2080647;28;20443;-74
2021/08/10 02:35:14;;;;;;;27.13;24.83;;;;;;;15.93;100.00;99377.56;2088433;28;20491;-74
2021/08/10 02:36:16;;;;;;;27.27;24.70;;;;;;;15.92;100.00;99367.91;2088268;28;20867;-75
2021/08/10 02:37:18;;;;;;;28.40;26.17;;;;;;;15.92;100.00;99375.97;2080447;28;20846;-75
2021/08/10 02:38:21;;;;;;;27.03;24.83;;;;;;;15.93;100.00;99382.94;2088294;28;20465;-74
2021/08/10 02:39:26;;;;;;;27.73;25.13;;;;;;;15.90;100.00;99368.22;2088383;28;20461;-74
2021/08/10 02:40:29;;;;;;;26.77;24.57;;;;;;;15.90;100.00;99368.22;2096510;28;20449;-74
2021/08/10 02:41:33;;;;;;;27.83;25.33;;;;;;;15.91;100.00;99375.19;2096623;28;20453;-74
2021/08/10 02:42:39;;;;;;;28.07;25.40;;;;;;;15.89;100.00;99371.22;2080268;28;20446;-75
2021/08/10 02:43:41;;;;;;;29.43;26.73;;;;;;;15.89;100.00;99371.22;2088392;28;20880;-74
2021/08/10 02:44:44;;;;;;;29.73;26.77;;;;;;;15.92;100.00;99370.59;2096565;28;20543;-75
2021/08/10 02:45:50;;;;;;;29.13;26.40;;;;;;;15.92;100.00;99373.28;2081252;28;20454;-74
2021/08/10 02:46:53;;;;;;;28.50;25.53;;;;;;;15.94;100.00;99373.75;2088226;28;20896;-74
2021/08/10 02:47:56;;;;;;;28.50;26.00;;;;;;;15.95;100.00;99375.31;2083767;28;20474;-75
2021/08/10 02:49:00;;;;;;;27.53;25.13;;;;;;;15.95;100.00;99380.69;2080755;28;20223;-74
2021/08/10 02:50:05;;;;;;;27.00;24.40;;;;;;;15.97;100.00;99383.84;2080208;28;20446;-76
2021/08/10 02:51:07;;;;;;;26.97;24.63;;;;;;;15.97;100.00;99387.34;2096499;28;20453;-75
2021/08/10 02:52:08;;;;;;;27.43;24.97;;;;;;;15.95;100.00;99386.88;2094221;28;20460;-74
2021/08/10 02:53:11;;;;;;;27.90;25.57;;;;;;;15.98;100.00;99385.44;2088600;28;20468;-75
2021/08/10 02:54:14;;;;;;;27.23;24.93;;;;;;;16.00;100.00;99388.59;2096637;28;20471;-75
2021/08/10 02:55:18;;;;;;;28.23;25.70;;;;;;;15.99;100.00;99381.66;2080977;28;20474;-75
2021/08/10 02:56:22;;;;;;;27.43;24.93;;;;;;;15.99;100.00;99389.72;2096445;28;20467;-75
2021/08/10 02:57:26;;;;;;;26.90;24.30;;;;;;;16.04;100.00;99386.84;2096099;28;20452;-74
2021/08/10 02:58:30;;;;;;;26.80;24.17;;;;;;;16.08;100.00;99380.50;2096438;28;20536;-75
2021/08/10 02:59:39;;;;;;;26.67;24.57;;;;;;;16.13;100.00;99387.59;2081391;28;20458;-75
2021/08/10 03:00:42;;;;;;;28.60;26.03;;;;;;;16.09;100.00;99381.28;2096210;28;20527;-74
2021/08/10 03:01:49;;;;;;;29.73;26.90;;;;;;;16.06;100.00;99385.38;2096183;28;20532;-75
2021/08/10 03:02:52;;;;;;;29.23;26.80;;;;;;;16.04;100.00;99381.44;2088362;28;20869;-75
2021/08/10 03:03:55;;;;;;;27.87;24.87;;;;;;;16.03;100.00;99375.28;2085754;28;20819;-75
2021/08/10 03:05:00;;;;;;;27.03;24.70;;;;;;;16.04;100.00;99379.53;2096683;28;20478;-75
2021/08/10 03:06:05;;;;;;;27.47;25.17;;;;;;;16.02;100.00;99375.59;2095921;28;20494;-75
2021/08/10 03:07:06;;;;;;;28.97;26.17;;;;;;;16.03;100.00;99377.19;2096664;28;20452;-75
2021/08/10 03:08:08;;;;;;;26.60;24.30;;;;;;;16.00;100.00;99365.16;2096095;28;20456;-74
2021/08/10 03:09:11;;;;;;;26.70;24.03;;;;;;;16.04;100.00;99368.78;2094854;28;20464;-74
2021/08/10 03:10:15;;;;;;;27.60;25.40;;;;;;;16.01;100.00;99369.44;2088438;28;20449;-75
2021/08/10 03:11:16;;;;;;;26.73;24.67;;;;;;;16.02;100.00;99372.91;2088270;28;20939;-75
2021/08/10 03:12:20;;;;;;;28.90;26.20;;;;;;;16.00;100.00;99375.16;2088236;28;20558;-74
2021/08/10 03:13:21;;;;;;;29.17;26.70;;;;;;;15.99;100.00;99371.66;2088439;28;20469;-75
2021/08/10 03:14:25;;;;;;;29.03;26.50;;;;;;;15.98;100.00;99369.28;2085859;28;20457;-74
2021/08/10 03:15:29;;;;;;;28.40;25.90;;;;;;;15.97;100.00;99362.31;2088384;28;20516;-75
2021/08/10 03:16:32;;;;;;;28.20;25.73;;;;;;;15.98;100.00;99369.28;2088576;28;20454;-75
2021/08/10 03:17:37;;;;;;;28.20;25.43;;;;;;;15.96;100.00;99368.81;2095795;28;20483;-75
2021/08/10 03:18:38;;;;;;;28.47;26.00;;;;;;;15.96;100.00;99377.69;2096227;28;20459;-74
2021/08/10 03:19:42;;;;;;;28.27;26.00;;;;;;;15.94;100.00;99369.16;2096222;28;20456;-74
2021/08/10 03:20:44;;;;;;;28.63;26.13;;;;;;;15.93;100.00;99367.56;2081204;28;20515;-74
2021/08/10 03:21:47;;;;;;;28.03;25.60;;;;;;;15.94;100.00;99368.38;2079998;28;20591;-74
2021/08/10 03:22:48;;;;;;;30.80;26.70;;;;;;;15.91;100.00;99375.19;2095866;28;20473;-74
2021/08/10 03:23:53;;;;;;;28.17;25.53;;;;;;;15.90;100.00;99367.41;2096731;28;20474;-75
2021/08/10 03:24:54;;;;;;;27.77;25.37;;;;;;;15.90;100.00;99360.16;2095921;28;20801;-74
2021/08/10 03:25:56;;;;;;;26.53;24.23;;;;;;;15.89;100.00;99360.47;2096640;28;20499;-75
2021/08/10 03:26:59;;;;;;;27.03;24.13;;;;;;;15.90;100.00;99362.03;2096180;28;20309;-75
2021/08/10 03:28:02;;;;;;;27.17;24.83;;;;;;;15.91;100.00;99363.63;2096497;28;21065;-74
2021/08/10 03:29:05;;;;;;;28.47;25.50;;;;;;;15.90;100.00;99367.41;2096467;28;20544;-75
2021/08/10 03:30:07;;;;;;;27.50;25.10;;;;;;;15.88;100.00;99367.75;2088148;28;20457;-75
2021/08/10 03:31:09;;;;;;;27.53;25.03;;;;;;;15.90;100.00;99367.41;2087843;28;20461;-74
2021/08/10 03:32:13;;;;;;;28.50;25.90;;;;;;;15.90;100.00;99378.19;2087985;28;20462;-74
2021/08/10 03:33:15;;;;;;;31.07;25.43;;;;;;;15.91;100.00;99383.25;2096304;28;20467;-74
2021/08/10 03:34:17;;;;;;;27.60;25.20;;;;;;;15.94;100.00;99381.81;2096598;28;20531;-74
2021/08/10 03:35:19;;;;;;;26.10;23.90;;;;;;;15.96;100.00;99382.28;2088131;28;20994;-75
2021/08/10 03:36:24;;;;;;;28.07;25.67;;;;;;;16.05;100.00;99383.03;2088334;28;20457;-75
2021/08/10 03:37:28;;;;;;;28.30;25.73;;;;;;;16.14;100.00;99388.38;2087975;28;20457;-74
2021/08/10 03:38:30;;;;;;;27.60;25.20;;;;;;;16.14;100.00;99383.78;2088019;28;20928;-74
2021/08/10 03:39:32;;;;;;;27.27;24.60;;;;;;;16.17;100.00;99377.75;2096399;28;20460;-75
2021/08/10 03:40:34;;;;;;;26.63;24.03;;;;;;;16.23;100.00;99387.22;2088022;28;20453;-75
2021/08/10 03:41:35;;;;;;;27.30;24.70;;;;;;;16.28;100.00;99378.94;2096280;28;20535;-75
2021/08/10 03:42:37;;;;;;;27.80;25.10;;;;;;;16.34;100.00;99382.25;2096215;28;20454;-75
2021/08/10 03:43:38;;;;;;;26.80;24.60;;;;;;;16.37;100.00;99378.91;2087604;28;20603;-74
2021/08/10 03:44:42;;;;;;;25.93;23.83;;;;;;;16.37;100.00;99371.63;2088026;28;20456;-74
2021/08/10 03:45:43;;;;;;;26.13;23.83;;;;;;;16.41;100.00;99366.34;2093020;28;20523;-75
2021/08/10 03:46:45;;;;;;;27.20;24.60;;;;;;;16.38;100.00;99375.88;2087775;28;20454;-75
2021/08/10 03:47:46;;;;;;;28.03;25.50;;;;;;;16.42;100.00;99364.44;2088249;28;20226;-74
2021/08/10 03:48:49;;;;;;;27.60;25.30;;;;;;;16.37;100.00;99360.84;2096268;28;20475;-75
2021/08/10 03:49:54;;;;;;;25.67;23.37;;;;;;;16.36;100.00;99364.66;2096510;28;20246;-75
2021/08/10 03:50:57;;;;;;;27.37;24.47;;;;;;;16.36;100.00;99358.47;2084509;28;20461;-74
2021/08/10 03:51:57;;;;;;;25.87;23.53;;;;;;;16.40;100.00;99365.56;2096372;28;20491;-74
2021/08/10 03:53:00;;;;;;;28.27;25.53;;;;;;;16.42;100.00;99361.75;2095716;28;20444;-74
2021/08/10 03:54:05;;;;;;;26.47;24.17;;;;;;;16.40;100.00;99360.19;2088189;28;20303;-75
2021/08/10 03:55:08;;;;;;;28.33;25.50;;;;;;;16.42;100.00;99361.75;2088254;28;20822;-75
2021/08/10 03:56:10;;;;;;;26.33;23.93;;;;;;;16.45;100.00;99366.50;2087608;28;20548;-74
2021/08/10 03:57:17;;;;;;;25.00;22.97;;;;;;;16.43;100.00;99357.97;2088657;28;20963;-75
2021/08/10 03:58:21;;;;;;;27.20;24.97;;;;;;;16.47;100.00;99356.19;2088062;28;20473;-74
2021/08/10 03:59:24;;;;;;;24.47;22.27;;;;;;;16.47;100.00;99356.97;2087813;28;20481;-74
2021/08/10 04:00:28;;;;;;;25.50;22.90;;;;;;;16.46;100.00;99351.91;2081582;28;20470;-74
2021/08/10 04:01:35;;;;;;;25.10;22.77;;;;;;;16.47;100.00;99353.50;2095583;28;20484;-74
2021/08/10 04:02:39;;;;;;;26.53;23.87;;;;;;;16.60;100.00;99353.25;2096422;28;20448;-74
2021/08/10 04:03:41;;;;;;;26.57;23.70;;;;;;;16.64;100.00;99347.97;2095856;28;20476;-74
2021/08/10 04:04:44;;;;;;;26.70;24.17;;;;;;;16.72;100.00;99344.47;2096142;28;20436;-74
2021/08/10 04:05:46;;;;;;;25.13;22.53;;;;;;;16.80;100.00;99346.28;2096313;28;20527;-74
2021/08/10 04:06:49;;;;;;;24.63;22.37;;;;;;;16.77;100.00;99346.97;2088169;28;20465;-75
2021/08/10 04:07:49;;;;;;;24.80;22.77;;;;;;;16.71;100.00;99350.97;2088055;28;20967;-75
2021/08/10 04:08:53;;;;;;;26.67;24.47;;;;;;;16.67;100.00;99360.78;2087931;28;20564;-74
2021/08/10 04:09:54;;;;;;;27.63;25.00;;;;;;;16.63;100.00;99359.88;2085544;28;20461;-74
2021/08/10 04:10:58;;;;;;;25.90;23.47;;;;;;;16.61;100.00;99359.41;2087884;28;20570;-75
2021/08/10 04:12:03;;;;;;;24.97;23.00;;;;;;;16.59;100.00;99356.25;2087340;28;20524;-75
2021/08/10 04:13:08;;;;;;;25.00;22.70;;;;;;;16.58;100.00;99368.13;2096306;28;20838;-75
2021/08/10 04:14:09;;;;;;;24.92;22.65;;;;;;;16.56;100.00;99367.69;2097074;28;20535;-74
2021/08/10 04:15:13;;;;;;;25.50;22.83;;;;;;;16.54;100.00;99370.72;2097722;28;20667;-74
2021/08/10 04:16:15;;;;;;;24.67;22.48;;;;;;;16.53;100.00;99363.75;2082667;28;20219;-74
2021/08/10 04:17:18;;;;;;;24.80;22.17;;;;;;;16.54;100.00;99359.16;2081584;28;20307;-75
2021/08/10 04:18:22;;;;;;;24.10;22.10;;;;;;;16.52;100.00;99358.69;2083641;28;20462;-75
2021/08/10 04:19:26;;;;;;;24.67;22.23;;;;;;;16.53;100.00;99361.06;2087283;28;20281;-74
2021/08/10 04:20:27;;;;;;;24.92;22.55;;;;;;;16.53;100.00;99362.97;2097664;28;20570;-74
2021/08/10 04:21:29;;;;;;;25.43;22.93;;;;;;;16.53;100.00;99368.34;2097871;28;20275;-75
2021/08/10 04:22:32;;;;;;;25.50;23.07;;;;;;;16.54;100.00;99375.31;2097637;28;20449;-75
2021/08/10 04:23:35;;;;;;;25.70;23.30;;;;;;;16.51;100.00;99375.97;2087848;28;20853;-75
2021/08/10 04:24:38;;;;;;;25.77;23.47;;;;;;;16.50;100.00;99372.47;2089097;28;20520;-74
2021/08/10 04:25:40;;;;;;;25.10;23.07;;;;;;;16.52;100.00;99375.66;2089464;28;20931;-74
2021/08/10 04:26:42;;;;;;;26.80;24.30;;;;;;;16.52;100.00;99383.72;2097683;28;20586;-75
2021/08/10 04:27:46;;;;;;;25.57;23.43;;;;;;;16.52;100.00;99380.25;2097536;28;20818;-74
2021/08/10 04:28:50;;;;;;;25.90;23.60;;;;;;;16.52;100.00;99372.94;2097676;28;20464;-75
2021/08/10 04:29:54;;;;;;;26.17;23.87;;;;;;;16.52;100.00;99378.34;2097138;28;20464;-75
2021/08/10 04:30:57;;;;;;;25.93;23.17;;;;;;;16.52;100.00;99378.34;2082737;28;20454;-75
2021/08/10 04:32:00;;;;;;;26.20;23.60;;;;;;;16.52;100.00;99372.94;2096755;28;20441;-75
2021/08/10 04:33:03;;;;;;;25.50;23.30;;;;;;;16.54;100.00;99376.09;2089526;28;20457;-74
2021/08/10 04:34:07;;;;;;;26.45;23.65;;;;;;;16.58;100.00;99374.31;2089585;28;20987;-75
2021/08/10 04:35:08;;;;;;;26.33;23.87;;;;;;;16.60;100.00;99380.19;2087087;28;20268;-75
2021/08/10 04:36:13;;;;;;;25.20;22.93;;;;;;;16.59;100.00;99370.53;2096071;28;21041;-75
2021/08/10 04:37:16;;;;;;;26.77;24.13;;;;;;;16.61;100.00;99372.88;2089626;28;20449;-75
2021/08/10 04:38:19;;;;;;;26.40;23.87;;;;;;;16.65;100.00;99366.50;2089294;28;20462;-75
2021/08/10 04:39:20;;;;;;;26.40;24.10;;;;;;;16.66;100.00;99373.47;2087810;28;20519;-75
2021/08/10 04:40:27;;;;;;;25.80;23.60;;;;;;;16.66;100.00;99380.75;2089175;28;20546;-75
2021/08/10 04:41:48;;;;;;;26.73;24.23;;;;;;;16.67;100.00;99375.03;2097714;28;20491;-75
2021/08/10 04:42:49;;;;;;;26.97;24.57;;;;;;;16.69;100.00;99374.75;2097400;28;20455;-75
2021/08/10 04:43:52;;;;;;;26.10;23.83;;;;;;;16.72;100.00;99366.00;2097551;28;20488;-75
2021/08/10 04:44:53;;;;;;;26.20;23.80;;;;;;;16.76;100.00;99361.53;2089128;28;20473;-75
2021/08/10 04:45:54;;;;;;;26.40;24.10;;;;;;;16.79;100.00;99366.28;2082579;28;20466;-74
2021/08/10 04:46:56;;;;;;;25.77;23.37;;;;;;;16.81;100.00;99358.66;2089314;28;20227;-74
2021/08/10 04:47:58;;;;;;;26.30;23.87;;;;;;;16.88;100.00;99358.91;2089346;28;20528;-74
2021/08/10 04:48:58;;;;;;;26.63;23.97;;;;;;;17.03;100.00;99354.00;2089218;28;20449;-74